sensor_id;sensor_type;location;lat;lon;timestamp;P1;durP1;ratioP1;P2;durP2;ratioP2
72895;SDS011;61036;53.224;6.554;2023-07-13T00:02:08;6.30;;;2.00;;
72895;SDS011;61036;53.224;6.554;2023-07-13T00:04:35;11.10;;;2.83;;
72895;SDS011;61036;53.224;6.554;2023-07-13T00:07:01;9.33;;;2.60;;
72895;SDS011;61036;53.224;6.554;2023-07-13T00:09:29;9.67;;;3.13;;
72895;SDS011;61036;53.224;6.554;2023-07-13T00:11:56;7.53;;;2.97;;
72895;SDS011;61036;53.224;6.554;2023-07-13T00:14:23;9.07;;;2.90;;
72895;SDS011;61036;53.224;6.554;2023-07-13T00:16:49;13.07;;;2.70;;
72895;SDS011;61036;53.224;6.554;2023-07-13T00:19:15;11.50;;;3.10;;
72895;SDS011;61036;53.224;6.554;2023-07-13T00:21:41;10.33;;;2.80;;
72895;SDS011;61036;53.224;6.554;2023-07-13T00:24:07;7.90;;;2.60;;
72895;SDS011;61036;53.224;6.554;2023-07-13T00:26:40;8.07;;;2.83;;
72895;SDS011;61036;53.224;6.554;2023-07-13T00:29:11;7.13;;;2.77;;
72895;SDS011;61036;53.224;6.554;2023-07-13T00:31:37;8.47;;;2.87;;
72895;SDS011;61036;53.224;6.554;2023-07-13T00:34:03;7.63;;;2.77;;
72895;SDS011;61036;53.224;6.554;2023-07-13T00:36:29;8.37;;;2.83;;
72895;SDS011;61036;53.224;6.554;2023-07-13T00:38:56;8.83;;;2.83;;
72895;SDS011;61036;53.224;6.554;2023-07-13T00:41:23;11.90;;;3.10;;
72895;SDS011;61036;53.224;6.554;2023-07-13T00:43:48;10.30;;;3.10;;
72895;SDS011;61036;53.224;6.554;2023-07-13T00:46:19;9.53;;;3.10;;
72895;SDS011;61036;53.224;6.554;2023-07-13T00:48:51;13.47;;;3.17;;
72895;SDS011;61036;53.224;6.554;2023-07-13T00:51:20;9.80;;;3.40;;
72895;SDS011;61036;53.224;6.554;2023-07-13T00:53:49;9.33;;;3.00;;
72895;SDS011;61036;53.224;6.554;2023-07-13T00:56:17;11.53;;;3.43;;
72895;SDS011;61036;53.224;6.554;2023-07-13T00:58:43;8.53;;;2.80;;
72895;SDS011;61036;53.224;6.554;2023-07-13T01:01:09;10.23;;;3.37;;
72895;SDS011;61036;53.224;6.554;2023-07-13T01:03:35;8.47;;;2.70;;
72895;SDS011;61036;53.224;6.554;2023-07-13T01:06:01;10.97;;;3.00;;
72895;SDS011;61036;53.224;6.554;2023-07-13T01:08:26;9.97;;;2.83;;
72895;SDS011;61036;53.224;6.554;2023-07-13T01:10:56;7.90;;;2.77;;
72895;SDS011;61036;53.224;6.554;2023-07-13T01:13:23;11.37;;;3.30;;
72895;SDS011;61036;53.224;6.554;2023-07-13T01:15:51;9.23;;;3.17;;
72895;SDS011;61036;53.224;6.554;2023-07-13T01:18:27;11.77;;;2.60;;
72895;SDS011;61036;53.224;6.554;2023-07-13T01:20:56;9.83;;;3.47;;
72895;SDS011;61036;53.224;6.554;2023-07-13T01:23:22;10.23;;;2.80;;
72895;SDS011;61036;53.224;6.554;2023-07-13T01:25:50;8.87;;;2.50;;
72895;SDS011;61036;53.224;6.554;2023-07-13T01:28:16;9.57;;;2.70;;
72895;SDS011;61036;53.224;6.554;2023-07-13T01:30:45;12.00;;;3.43;;
72895;SDS011;61036;53.224;6.554;2023-07-13T01:33:16;10.07;;;3.33;;
72895;SDS011;61036;53.224;6.554;2023-07-13T01:35:43;12.07;;;3.00;;
72895;SDS011;61036;53.224;6.554;2023-07-13T01:38:10;10.03;;;3.23;;
72895;SDS011;61036;53.224;6.554;2023-07-13T01:40:37;10.00;;;3.47;;
72895;SDS011;61036;53.224;6.554;2023-07-13T01:43:03;9.80;;;3.00;;
72895;SDS011;61036;53.224;6.554;2023-07-13T01:45:28;9.47;;;2.87;;
72895;SDS011;61036;53.224;6.554;2023-07-13T01:47:54;10.50;;;3.00;;
72895;SDS011;61036;53.224;6.554;2023-07-13T01:50:19;8.37;;;2.83;;
72895;SDS011;61036;53.224;6.554;2023-07-13T01:52:45;9.90;;;2.80;;
72895;SDS011;61036;53.224;6.554;2023-07-13T01:55:13;7.63;;;3.10;;
72895;SDS011;61036;53.224;6.554;2023-07-13T01:57:40;9.63;;;2.53;;
72895;SDS011;61036;53.224;6.554;2023-07-13T02:00:06;7.73;;;2.37;;
72895;SDS011;61036;53.224;6.554;2023-07-13T02:02:45;8.77;;;2.67;;
72895;SDS011;61036;53.224;6.554;2023-07-13T02:05:11;7.37;;;2.70;;
72895;SDS011;61036;53.224;6.554;2023-07-13T02:07:38;8.03;;;2.90;;
72895;SDS011;61036;53.224;6.554;2023-07-13T02:10:04;10.43;;;2.77;;
72895;SDS011;61036;53.224;6.554;2023-07-13T02:12:31;7.57;;;2.40;;
72895;SDS011;61036;53.224;6.554;2023-07-13T02:14:57;7.03;;;2.77;;
72895;SDS011;61036;53.224;6.554;2023-07-13T02:17:22;10.63;;;2.80;;
72895;SDS011;61036;53.224;6.554;2023-07-13T02:19:48;7.90;;;2.70;;
72895;SDS011;61036;53.224;6.554;2023-07-13T02:22:13;8.40;;;2.90;;
72895;SDS011;61036;53.224;6.554;2023-07-13T02:24:39;11.73;;;2.93;;
72895;SDS011;61036;53.224;6.554;2023-07-13T02:27:05;9.50;;;3.10;;
72895;SDS011;61036;53.224;6.554;2023-07-13T02:29:30;7.83;;;3.00;;
72895;SDS011;61036;53.224;6.554;2023-07-13T02:31:56;10.07;;;2.57;;
72895;SDS011;61036;53.224;6.554;2023-07-13T02:34:22;7.07;;;2.50;;
72895;SDS011;61036;53.224;6.554;2023-07-13T02:36:48;5.40;;;2.40;;
72895;SDS011;61036;53.224;6.554;2023-07-13T02:39:14;8.27;;;2.53;;
72895;SDS011;61036;53.224;6.554;2023-07-13T02:41:40;7.27;;;2.60;;
72895;SDS011;61036;53.224;6.554;2023-07-13T02:44:06;7.03;;;2.20;;
72895;SDS011;61036;53.224;6.554;2023-07-13T02:46:34;8.63;;;3.37;;
72895;SDS011;61036;53.224;6.554;2023-07-13T02:49:02;7.20;;;2.20;;
72895;SDS011;61036;53.224;6.554;2023-07-13T02:51:28;8.83;;;2.60;;
72895;SDS011;61036;53.224;6.554;2023-07-13T02:53:54;9.20;;;3.10;;
72895;SDS011;61036;53.224;6.554;2023-07-13T02:56:22;7.27;;;2.67;;
72895;SDS011;61036;53.224;6.554;2023-07-13T02:58:50;8.90;;;3.07;;
72895;SDS011;61036;53.224;6.554;2023-07-13T03:01:15;13.27;;;3.50;;
72895;SDS011;61036;53.224;6.554;2023-07-13T03:03:47;10.90;;;3.60;;
72895;SDS011;61036;53.224;6.554;2023-07-13T03:06:14;9.27;;;3.20;;
72895;SDS011;61036;53.224;6.554;2023-07-13T03:08:48;10.97;;;3.63;;
72895;SDS011;61036;53.224;6.554;2023-07-13T03:11:18;11.30;;;3.63;;
72895;SDS011;61036;53.224;6.554;2023-07-13T03:13:51;14.10;;;4.70;;
72895;SDS011;61036;53.224;6.554;2023-07-13T03:16:18;15.20;;;4.77;;
72895;SDS011;61036;53.224;6.554;2023-07-13T03:18:45;8.10;;;3.33;;
72895;SDS011;61036;53.224;6.554;2023-07-13T03:21:11;9.20;;;3.77;;
72895;SDS011;61036;53.224;6.554;2023-07-13T03:23:38;13.60;;;4.60;;
72895;SDS011;61036;53.224;6.554;2023-07-13T03:26:14;12.10;;;4.40;;
72895;SDS011;61036;53.224;6.554;2023-07-13T03:28:42;11.03;;;4.30;;
72895;SDS011;61036;53.224;6.554;2023-07-13T03:31:13;11.17;;;4.17;;
72895;SDS011;61036;53.224;6.554;2023-07-13T03:33:46;13.27;;;3.97;;
72895;SDS011;61036;53.224;6.554;2023-07-13T03:36:22;13.43;;;4.23;;
72895;SDS011;61036;53.224;6.554;2023-07-13T03:38:54;9.67;;;3.70;;
72895;SDS011;61036;53.224;6.554;2023-07-13T03:41:28;10.90;;;3.73;;
72895;SDS011;61036;53.224;6.554;2023-07-13T03:43:57;11.23;;;4.40;;
72895;SDS011;61036;53.224;6.554;2023-07-13T03:46:24;11.20;;;3.73;;
72895;SDS011;61036;53.224;6.554;2023-07-13T03:48:50;10.33;;;3.50;;
72895;SDS011;61036;53.224;6.554;2023-07-13T03:51:16;9.43;;;3.67;;
72895;SDS011;61036;53.224;6.554;2023-07-13T03:53:43;10.50;;;3.53;;
72895;SDS011;61036;53.224;6.554;2023-07-13T03:56:12;14.83;;;4.20;;
72895;SDS011;61036;53.224;6.554;2023-07-13T03:58:41;14.40;;;3.80;;
72895;SDS011;61036;53.224;6.554;2023-07-13T04:01:15;10.73;;;3.43;;
72895;SDS011;61036;53.224;6.554;2023-07-13T04:03:43;7.70;;;3.10;;
72895;SDS011;61036;53.224;6.554;2023-07-13T04:06:13;12.93;;;3.43;;
72895;SDS011;61036;53.224;6.554;2023-07-13T04:08:46;13.00;;;3.53;;
72895;SDS011;61036;53.224;6.554;2023-07-13T04:11:24;10.23;;;4.10;;
72895;SDS011;61036;53.224;6.554;2023-07-13T04:13:52;11.63;;;3.20;;
72895;SDS011;61036;53.224;6.554;2023-07-13T04:16:18;9.83;;;3.77;;
72895;SDS011;61036;53.224;6.554;2023-07-13T04:18:45;11.47;;;3.73;;
72895;SDS011;61036;53.224;6.554;2023-07-13T04:21:11;8.90;;;3.10;;
72895;SDS011;61036;53.224;6.554;2023-07-13T04:23:37;10.97;;;3.47;;
72895;SDS011;61036;53.224;6.554;2023-07-13T04:26:03;8.97;;;3.50;;
72895;SDS011;61036;53.224;6.554;2023-07-13T04:28:29;12.13;;;4.10;;
72895;SDS011;61036;53.224;6.554;2023-07-13T04:30:55;12.17;;;3.87;;
72895;SDS011;61036;53.224;6.554;2023-07-13T04:33:21;9.40;;;3.00;;
72895;SDS011;61036;53.224;6.554;2023-07-13T04:35:50;12.60;;;3.90;;
72895;SDS011;61036;53.224;6.554;2023-07-13T04:38:22;9.50;;;3.30;;
72895;SDS011;61036;53.224;6.554;2023-07-13T04:40:50;13.10;;;3.73;;
72895;SDS011;61036;53.224;6.554;2023-07-13T04:43:16;12.53;;;3.73;;
72895;SDS011;61036;53.224;6.554;2023-07-13T04:45:42;10.57;;;4.40;;
72895;SDS011;61036;53.224;6.554;2023-07-13T04:48:08;10.47;;;3.90;;
72895;SDS011;61036;53.224;6.554;2023-07-13T04:50:35;10.23;;;3.70;;
72895;SDS011;61036;53.224;6.554;2023-07-13T04:53:02;14.07;;;3.93;;
72895;SDS011;61036;53.224;6.554;2023-07-13T04:55:29;13.03;;;3.80;;
72895;SDS011;61036;53.224;6.554;2023-07-13T04:57:55;12.93;;;3.80;;
72895;SDS011;61036;53.224;6.554;2023-07-13T05:00:23;15.70;;;4.07;;
72895;SDS011;61036;53.224;6.554;2023-07-13T05:02:49;10.60;;;3.80;;
72895;SDS011;61036;53.224;6.554;2023-07-13T05:05:14;11.80;;;3.60;;
72895;SDS011;61036;53.224;6.554;2023-07-13T05:07:40;12.63;;;3.87;;
72895;SDS011;61036;53.224;6.554;2023-07-13T05:10:05;12.10;;;3.97;;
72895;SDS011;61036;53.224;6.554;2023-07-13T05:12:32;15.17;;;4.00;;
72895;SDS011;61036;53.224;6.554;2023-07-13T05:14:57;11.27;;;4.07;;
72895;SDS011;61036;53.224;6.554;2023-07-13T05:17:23;12.57;;;4.53;;
72895;SDS011;61036;53.224;6.554;2023-07-13T05:19:49;11.30;;;4.10;;
72895;SDS011;61036;53.224;6.554;2023-07-13T05:22:14;12.93;;;3.63;;
72895;SDS011;61036;53.224;6.554;2023-07-13T05:24:40;9.13;;;3.30;;
72895;SDS011;61036;53.224;6.554;2023-07-13T05:27:05;11.40;;;3.77;;
72895;SDS011;61036;53.224;6.554;2023-07-13T05:29:31;8.80;;;3.33;;
72895;SDS011;61036;53.224;6.554;2023-07-13T05:31:56;12.03;;;3.63;;
72895;SDS011;61036;53.224;6.554;2023-07-13T05:34:22;9.43;;;3.00;;
72895;SDS011;61036;53.224;6.554;2023-07-13T05:36:48;12.30;;;3.50;;
72895;SDS011;61036;53.224;6.554;2023-07-13T05:39:14;13.97;;;4.43;;
72895;SDS011;61036;53.224;6.554;2023-07-13T05:41:40;10.70;;;4.07;;
72895;SDS011;61036;53.224;6.554;2023-07-13T05:44:06;11.97;;;3.60;;
72895;SDS011;61036;53.224;6.554;2023-07-13T05:46:31;9.80;;;3.37;;
72895;SDS011;61036;53.224;6.554;2023-07-13T05:48:57;9.17;;;3.63;;
72895;SDS011;61036;53.224;6.554;2023-07-13T05:51:22;11.07;;;3.93;;
72895;SDS011;61036;53.224;6.554;2023-07-13T05:53:48;7.97;;;3.23;;
72895;SDS011;61036;53.224;6.554;2023-07-13T05:56:13;11.47;;;3.50;;
72895;SDS011;61036;53.224;6.554;2023-07-13T05:58:39;10.07;;;3.27;;
72895;SDS011;61036;53.224;6.554;2023-07-13T06:01:05;9.87;;;2.90;;
72895;SDS011;61036;53.224;6.554;2023-07-13T06:03:32;7.07;;;2.90;;
72895;SDS011;61036;53.224;6.554;2023-07-13T06:05:59;10.30;;;3.70;;
72895;SDS011;61036;53.224;6.554;2023-07-13T06:08:27;14.07;;;3.33;;
72895;SDS011;61036;53.224;6.554;2023-07-13T06:10:53;11.80;;;3.20;;
72895;SDS011;61036;53.224;6.554;2023-07-13T06:13:18;9.87;;;3.37;;
72895;SDS011;61036;53.224;6.554;2023-07-13T06:15:48;8.73;;;3.30;;
72895;SDS011;61036;53.224;6.554;2023-07-13T06:18:14;11.93;;;2.80;;
72895;SDS011;61036;53.224;6.554;2023-07-13T06:20:40;9.57;;;3.17;;
72895;SDS011;61036;53.224;6.554;2023-07-13T06:23:06;9.07;;;2.90;;
72895;SDS011;61036;53.224;6.554;2023-07-13T06:25:31;8.80;;;2.53;;
72895;SDS011;61036;53.224;6.554;2023-07-13T06:27:57;7.90;;;2.53;;
72895;SDS011;61036;53.224;6.554;2023-07-13T06:30:22;9.10;;;2.70;;
72895;SDS011;61036;53.224;6.554;2023-07-13T06:32:51;10.73;;;3.00;;
72895;SDS011;61036;53.224;6.554;2023-07-13T06:35:16;9.43;;;3.23;;
72895;SDS011;61036;53.224;6.554;2023-07-13T06:37:42;8.90;;;3.00;;
72895;SDS011;61036;53.224;6.554;2023-07-13T06:40:07;7.17;;;2.40;;
72895;SDS011;61036;53.224;6.554;2023-07-13T06:42:33;10.70;;;2.83;;
72895;SDS011;61036;53.224;6.554;2023-07-13T06:44:58;10.50;;;3.07;;
72895;SDS011;61036;53.224;6.554;2023-07-13T06:47:24;10.10;;;2.87;;
72895;SDS011;61036;53.224;6.554;2023-07-13T06:49:49;7.60;;;2.53;;
72895;SDS011;61036;53.224;6.554;2023-07-13T06:52:15;6.10;;;2.37;;
72895;SDS011;61036;53.224;6.554;2023-07-13T06:54:40;9.40;;;2.70;;
72895;SDS011;61036;53.224;6.554;2023-07-13T06:57:08;9.17;;;2.50;;
72895;SDS011;61036;53.224;6.554;2023-07-13T06:59:34;10.13;;;2.33;;
72895;SDS011;61036;53.224;6.554;2023-07-13T07:01:59;8.30;;;2.30;;
72895;SDS011;61036;53.224;6.554;2023-07-13T07:04:25;7.33;;;2.23;;
72895;SDS011;61036;53.224;6.554;2023-07-13T07:06:51;8.10;;;2.47;;
72895;SDS011;61036;53.224;6.554;2023-07-13T07:09:16;9.93;;;2.43;;
72895;SDS011;61036;53.224;6.554;2023-07-13T07:11:42;7.53;;;2.63;;
72895;SDS011;61036;53.224;6.554;2023-07-13T07:14:08;8.67;;;2.60;;
72895;SDS011;61036;53.224;6.554;2023-07-13T07:16:33;6.03;;;2.13;;
72895;SDS011;61036;53.224;6.554;2023-07-13T07:18:59;6.20;;;2.33;;
72895;SDS011;61036;53.224;6.554;2023-07-13T07:21:24;8.10;;;2.40;;
72895;SDS011;61036;53.224;6.554;2023-07-13T07:23:51;6.63;;;2.20;;
72895;SDS011;61036;53.224;6.554;2023-07-13T07:26:17;4.83;;;1.90;;
72895;SDS011;61036;53.224;6.554;2023-07-13T07:28:43;5.30;;;1.97;;
72895;SDS011;61036;53.224;6.554;2023-07-13T07:31:08;7.07;;;2.33;;
72895;SDS011;61036;53.224;6.554;2023-07-13T07:33:34;7.27;;;1.73;;
72895;SDS011;61036;53.224;6.554;2023-07-13T07:36:00;8.23;;;2.40;;
72895;SDS011;61036;53.224;6.554;2023-07-13T07:38:26;4.43;;;1.80;;
72895;SDS011;61036;53.224;6.554;2023-07-13T07:40:52;7.37;;;2.37;;
72895;SDS011;61036;53.224;6.554;2023-07-13T07:43:18;5.43;;;1.90;;
72895;SDS011;61036;53.224;6.554;2023-07-13T07:45:44;6.87;;;1.90;;
72895;SDS011;61036;53.224;6.554;2023-07-13T07:48:10;7.10;;;1.93;;
72895;SDS011;61036;53.224;6.554;2023-07-13T07:50:36;6.13;;;1.80;;
72895;SDS011;61036;53.224;6.554;2023-07-13T07:53:02;7.60;;;2.17;;
72895;SDS011;61036;53.224;6.554;2023-07-13T07:55:28;4.90;;;2.10;;
72895;SDS011;61036;53.224;6.554;2023-07-13T07:57:56;9.17;;;2.30;;
72895;SDS011;61036;53.224;6.554;2023-07-13T08:00:24;5.23;;;1.80;;
72895;SDS011;61036;53.224;6.554;2023-07-13T08:02:50;6.40;;;2.53;;
72895;SDS011;61036;53.224;6.554;2023-07-13T08:05:16;6.83;;;2.37;;
72895;SDS011;61036;53.224;6.554;2023-07-13T08:07:42;4.63;;;1.67;;
72895;SDS011;61036;53.224;6.554;2023-07-13T08:10:07;4.37;;;1.70;;
72895;SDS011;61036;53.224;6.554;2023-07-13T08:12:37;4.23;;;1.43;;
72895;SDS011;61036;53.224;6.554;2023-07-13T08:15:04;4.37;;;1.30;;
72895;SDS011;61036;53.224;6.554;2023-07-13T08:17:31;4.57;;;1.33;;
72895;SDS011;61036;53.224;6.554;2023-07-13T08:19:56;5.50;;;1.70;;
72895;SDS011;61036;53.224;6.554;2023-07-13T08:22:22;4.90;;;1.70;;
72895;SDS011;61036;53.224;6.554;2023-07-13T08:24:47;6.43;;;1.90;;
72895;SDS011;61036;53.224;6.554;2023-07-13T08:27:20;3.87;;;1.60;;
72895;SDS011;61036;53.224;6.554;2023-07-13T08:29:47;4.00;;;1.73;;
72895;SDS011;61036;53.224;6.554;2023-07-13T08:32:13;6.93;;;1.83;;
72895;SDS011;61036;53.224;6.554;2023-07-13T08:34:39;4.17;;;1.90;;
72895;SDS011;61036;53.224;6.554;2023-07-13T08:37:05;5.20;;;2.03;;
72895;SDS011;61036;53.224;6.554;2023-07-13T08:39:31;5.13;;;2.10;;
72895;SDS011;61036;53.224;6.554;2023-07-13T08:41:59;6.73;;;2.40;;
72895;SDS011;61036;53.224;6.554;2023-07-13T08:45:14;4.90;;;2.30;;
72895;SDS011;61036;53.224;6.554;2023-07-13T08:47:32;6.67;;;2.50;;
72895;SDS011;61036;53.224;6.554;2023-07-13T08:50:03;5.57;;;2.47;;
72895;SDS011;61036;53.224;6.554;2023-07-13T08:55:02;6.77;;;2.20;;
72895;SDS011;61036;53.224;6.554;2023-07-13T08:58:00;4.53;;;1.93;;
72895;SDS011;61036;53.224;6.554;2023-07-13T09:00:38;8.73;;;2.77;;
72895;SDS011;61036;53.224;6.554;2023-07-13T09:03:06;6.90;;;2.20;;
72895;SDS011;61036;53.224;6.554;2023-07-13T09:05:45;6.17;;;2.13;;
72895;SDS011;61036;53.224;6.554;2023-07-13T09:08:36;7.90;;;2.37;;
72895;SDS011;61036;53.224;6.554;2023-07-13T09:16:57;5.90;;;2.23;;
72895;SDS011;61036;53.224;6.554;2023-07-13T09:19:25;5.90;;;2.10;;
72895;SDS011;61036;53.224;6.554;2023-07-13T09:21:57;3.97;;;1.73;;
72895;SDS011;61036;53.224;6.554;2023-07-13T09:27:15;5.53;;;2.00;;
72895;SDS011;61036;53.224;6.554;2023-07-13T09:29:57;4.13;;;1.73;;
72895;SDS011;61036;53.224;6.554;2023-07-13T09:32:28;5.13;;;1.77;;
72895;SDS011;61036;53.224;6.554;2023-07-13T09:34:55;7.10;;;2.20;;
72895;SDS011;61036;53.224;6.554;2023-07-13T09:37:21;7.20;;;2.00;;
72895;SDS011;61036;53.224;6.554;2023-07-13T09:39:53;7.53;;;1.80;;
72895;SDS011;61036;53.224;6.554;2023-07-13T09:42:22;5.37;;;2.07;;
72895;SDS011;61036;53.224;6.554;2023-07-13T09:44:52;7.20;;;2.13;;
72895;SDS011;61036;53.224;6.554;2023-07-13T09:47:20;5.47;;;2.10;;
72895;SDS011;61036;53.224;6.554;2023-07-13T09:50:09;6.73;;;2.53;;
72895;SDS011;61036;53.224;6.554;2023-07-13T09:52:46;10.37;;;2.40;;
72895;SDS011;61036;53.224;6.554;2023-07-13T09:55:47;9.40;;;2.20;;
72895;SDS011;61036;53.224;6.554;2023-07-13T09:58:19;6.03;;;1.90;;
72895;SDS011;61036;53.224;6.554;2023-07-13T10:00:58;5.77;;;1.90;;
72895;SDS011;61036;53.224;6.554;2023-07-13T10:03:26;4.10;;;1.60;;
72895;SDS011;61036;53.224;6.554;2023-07-13T10:05:57;4.17;;;1.50;;
72895;SDS011;61036;53.224;6.554;2023-07-13T10:08:30;4.60;;;1.47;;
72895;SDS011;61036;53.224;6.554;2023-07-13T10:11:39;4.27;;;1.23;;
72895;SDS011;61036;53.224;6.554;2023-07-13T10:14:09;1.87;;;1.30;;
72895;SDS011;61036;53.224;6.554;2023-07-13T10:16:42;2.87;;;1.40;;
72895;SDS011;61036;53.224;6.554;2023-07-13T10:22:02;1.90;;;1.17;;
72895;SDS011;61036;53.224;6.554;2023-07-13T10:24:35;3.87;;;1.23;;
72895;SDS011;61036;53.224;6.554;2023-07-13T10:27:19;4.47;;;1.50;;
72895;SDS011;61036;53.224;6.554;2023-07-13T10:30:11;2.67;;;1.20;;
72895;SDS011;61036;53.224;6.554;2023-07-13T10:32:38;3.73;;;1.40;;
72895;SDS011;61036;53.224;6.554;2023-07-13T10:35:04;3.03;;;1.20;;
72895;SDS011;61036;53.224;6.554;2023-07-13T10:37:41;3.97;;;1.40;;
72895;SDS011;61036;53.224;6.554;2023-07-13T10:40:15;4.17;;;1.40;;
72895;SDS011;61036;53.224;6.554;2023-07-13T10:42:47;2.37;;;1.20;;
72895;SDS011;61036;53.224;6.554;2023-07-13T10:45:15;3.63;;;1.23;;
72895;SDS011;61036;53.224;6.554;2023-07-13T10:47:43;2.93;;;1.53;;
72895;SDS011;61036;53.224;6.554;2023-07-13T10:50:15;4.90;;;1.27;;
72895;SDS011;61036;53.224;6.554;2023-07-13T10:52:49;2.37;;;1.20;;
72895;SDS011;61036;53.224;6.554;2023-07-13T10:58:01;3.20;;;1.10;;
72895;SDS011;61036;53.224;6.554;2023-07-13T11:00:42;5.83;;;1.60;;
72895;SDS011;61036;53.224;6.554;2023-07-13T11:03:11;4.10;;;1.20;;
72895;SDS011;61036;53.224;6.554;2023-07-13T11:05:39;3.30;;;1.20;;
72895;SDS011;61036;53.224;6.554;2023-07-13T11:10:53;3.10;;;1.30;;
72895;SDS011;61036;53.224;6.554;2023-07-13T11:18:49;3.70;;;1.60;;
72895;SDS011;61036;53.224;6.554;2023-07-13T11:23:44;2.90;;;1.20;;
72895;SDS011;61036;53.224;6.554;2023-07-13T11:31:52;4.87;;;1.70;;
72895;SDS011;61036;53.224;6.554;2023-07-13T11:34:29;5.47;;;1.50;;
72895;SDS011;61036;53.224;6.554;2023-07-13T11:36:57;3.57;;;1.33;;
72895;SDS011;61036;53.224;6.554;2023-07-13T11:39:28;3.83;;;1.47;;
72895;SDS011;61036;53.224;6.554;2023-07-13T11:41:59;3.97;;;1.50;;
72895;SDS011;61036;53.224;6.554;2023-07-13T11:44:28;4.00;;;1.80;;
72895;SDS011;61036;53.224;6.554;2023-07-13T11:46:55;4.37;;;1.50;;
72895;SDS011;61036;53.224;6.554;2023-07-13T11:49:26;4.47;;;1.43;;
72895;SDS011;61036;53.224;6.554;2023-07-13T11:51:54;2.90;;;1.53;;
72895;SDS011;61036;53.224;6.554;2023-07-13T11:54:42;3.93;;;1.23;;
72895;SDS011;61036;53.224;6.554;2023-07-13T11:57:27;3.53;;;1.50;;
72895;SDS011;61036;53.224;6.554;2023-07-13T11:59:56;3.20;;;1.57;;
72895;SDS011;61036;53.224;6.554;2023-07-13T12:02:33;3.97;;;1.40;;
72895;SDS011;61036;53.224;6.554;2023-07-13T12:05:03;4.40;;;1.67;;
72895;SDS011;61036;53.224;6.554;2023-07-13T12:07:31;4.53;;;1.60;;
72895;SDS011;61036;53.224;6.554;2023-07-13T12:12:51;4.57;;;1.63;;
72895;SDS011;61036;53.224;6.554;2023-07-13T12:15:22;5.17;;;1.73;;
72895;SDS011;61036;53.224;6.554;2023-07-13T12:17:48;4.47;;;1.60;;
72895;SDS011;61036;53.224;6.554;2023-07-13T12:20:18;4.70;;;1.67;;
72895;SDS011;61036;53.224;6.554;2023-07-13T12:22:47;6.27;;;1.73;;
72895;SDS011;61036;53.224;6.554;2023-07-13T12:25:14;4.10;;;1.60;;
72895;SDS011;61036;53.224;6.554;2023-07-13T12:27:41;4.83;;;1.60;;
72895;SDS011;61036;53.224;6.554;2023-07-13T12:33:02;4.40;;;1.83;;
72895;SDS011;61036;53.224;6.554;2023-07-13T12:35:28;4.37;;;1.60;;
72895;SDS011;61036;53.224;6.554;2023-07-13T12:38:00;4.87;;;1.30;;
72895;SDS011;61036;53.224;6.554;2023-07-13T12:40:32;3.80;;;1.47;;
72895;SDS011;61036;53.224;6.554;2023-07-13T12:42:59;5.73;;;1.80;;
72895;SDS011;61036;53.224;6.554;2023-07-13T12:45:29;4.73;;;2.20;;
72895;SDS011;61036;53.224;6.554;2023-07-13T12:48:02;3.27;;;1.20;;
72895;SDS011;61036;53.224;6.554;2023-07-13T12:50:40;4.50;;;1.10;;
72895;SDS011;61036;53.224;6.554;2023-07-13T12:53:15;2.87;;;1.20;;
72895;SDS011;61036;53.224;6.554;2023-07-13T12:55:46;3.13;;;1.50;;
72895;SDS011;61036;53.224;6.554;2023-07-13T12:58:24;5.37;;;1.60;;
72895;SDS011;61036;53.224;6.554;2023-07-13T13:00:54;6.07;;;1.90;;
72895;SDS011;61036;53.224;6.554;2023-07-13T13:03:30;7.23;;;1.90;;
72895;SDS011;61036;53.224;6.554;2023-07-13T13:06:02;4.10;;;1.80;;
72895;SDS011;61036;53.224;6.554;2023-07-13T13:08:49;3.87;;;1.70;;
72895;SDS011;61036;53.224;6.554;2023-07-13T13:11:20;3.53;;;1.40;;
72895;SDS011;61036;53.224;6.554;2023-07-13T13:13:48;3.60;;;1.63;;
72895;SDS011;61036;53.224;6.554;2023-07-13T13:16:17;4.67;;;1.60;;
72895;SDS011;61036;53.224;6.554;2023-07-13T13:18:47;6.47;;;1.80;;
72895;SDS011;61036;53.224;6.554;2023-07-13T13:21:13;6.07;;;2.00;;
72895;SDS011;61036;53.224;6.554;2023-07-13T13:23:38;5.10;;;1.70;;
72895;SDS011;61036;53.224;6.554;2023-07-13T13:26:05;5.87;;;2.07;;
72895;SDS011;61036;53.224;6.554;2023-07-13T13:28:35;6.37;;;1.70;;
72895;SDS011;61036;53.224;6.554;2023-07-13T13:31:01;3.20;;;1.40;;
72895;SDS011;61036;53.224;6.554;2023-07-13T13:33:27;4.20;;;1.80;;
72895;SDS011;61036;53.224;6.554;2023-07-13T13:35:52;4.07;;;1.80;;
72895;SDS011;61036;53.224;6.554;2023-07-13T13:38:19;6.80;;;2.20;;
72895;SDS011;61036;53.224;6.554;2023-07-13T13:40:48;7.47;;;2.07;;
72895;SDS011;61036;53.224;6.554;2023-07-13T13:43:21;6.77;;;2.20;;
72895;SDS011;61036;53.224;6.554;2023-07-13T13:45:52;6.07;;;2.00;;
72895;SDS011;61036;53.224;6.554;2023-07-13T13:48:21;7.33;;;2.40;;
72895;SDS011;61036;53.224;6.554;2023-07-13T13:51:00;6.50;;;2.30;;
72895;SDS011;61036;53.224;6.554;2023-07-13T13:53:26;8.23;;;2.23;;
72895;SDS011;61036;53.224;6.554;2023-07-13T13:55:52;5.97;;;1.87;;
72895;SDS011;61036;53.224;6.554;2023-07-13T13:58:18;5.80;;;1.90;;
72895;SDS011;61036;53.224;6.554;2023-07-13T14:00:44;6.60;;;2.00;;
72895;SDS011;61036;53.224;6.554;2023-07-13T14:03:20;7.00;;;1.90;;
72895;SDS011;61036;53.224;6.554;2023-07-13T14:05:47;4.77;;;1.80;;
72895;SDS011;61036;53.224;6.554;2023-07-13T14:08:14;4.97;;;1.90;;
72895;SDS011;61036;53.224;6.554;2023-07-13T14:10:44;5.30;;;2.03;;
72895;SDS011;61036;53.224;6.554;2023-07-13T14:13:16;5.87;;;1.80;;
72895;SDS011;61036;53.224;6.554;2023-07-13T14:15:43;6.90;;;1.43;;
72895;SDS011;61036;53.224;6.554;2023-07-13T14:18:08;3.43;;;1.60;;
72895;SDS011;61036;53.224;6.554;2023-07-13T14:20:34;5.43;;;1.70;;
72895;SDS011;61036;53.224;6.554;2023-07-13T14:22:59;5.30;;;1.83;;
72895;SDS011;61036;53.224;6.554;2023-07-13T14:25:25;5.93;;;1.67;;
72895;SDS011;61036;53.224;6.554;2023-07-13T14:27:55;5.57;;;1.93;;
72895;SDS011;61036;53.224;6.554;2023-07-13T14:30:29;4.90;;;1.90;;
72895;SDS011;61036;53.224;6.554;2023-07-13T14:32:54;6.27;;;2.30;;
72895;SDS011;61036;53.224;6.554;2023-07-13T14:35:21;5.27;;;2.00;;
72895;SDS011;61036;53.224;6.554;2023-07-13T14:37:48;5.20;;;1.90;;
72895;SDS011;61036;53.224;6.554;2023-07-13T14:40:15;4.20;;;1.63;;
72895;SDS011;61036;53.224;6.554;2023-07-13T14:42:42;3.40;;;1.60;;
72895;SDS011;61036;53.224;6.554;2023-07-13T14:45:12;5.40;;;1.83;;
72895;SDS011;61036;53.224;6.554;2023-07-13T14:47:39;4.33;;;1.60;;
72895;SDS011;61036;53.224;6.554;2023-07-13T14:50:05;5.80;;;1.70;;
72895;SDS011;61036;53.224;6.554;2023-07-13T14:52:36;6.67;;;2.20;;
72895;SDS011;61036;53.224;6.554;2023-07-13T14:55:02;5.93;;;1.87;;
72895;SDS011;61036;53.224;6.554;2023-07-13T14:57:27;4.70;;;1.67;;
72895;SDS011;61036;53.224;6.554;2023-07-13T14:59:53;5.00;;;1.60;;
72895;SDS011;61036;53.224;6.554;2023-07-13T15:04:55;5.63;;;2.03;;
72895;SDS011;61036;53.224;6.554;2023-07-13T15:07:21;6.33;;;1.60;;
72895;SDS011;61036;53.224;6.554;2023-07-13T15:09:48;6.53;;;2.07;;
72895;SDS011;61036;53.224;6.554;2023-07-13T15:12:14;5.93;;;2.10;;
72895;SDS011;61036;53.224;6.554;2023-07-13T15:14:39;7.10;;;2.10;;
72895;SDS011;61036;53.224;6.554;2023-07-13T15:17:05;5.73;;;1.93;;
72895;SDS011;61036;53.224;6.554;2023-07-13T15:19:42;5.03;;;2.00;;
72895;SDS011;61036;53.224;6.554;2023-07-13T15:22:08;4.97;;;2.03;;
72895;SDS011;61036;53.224;6.554;2023-07-13T15:24:35;7.37;;;2.20;;
72895;SDS011;61036;53.224;6.554;2023-07-13T15:27:02;7.27;;;2.37;;
72895;SDS011;61036;53.224;6.554;2023-07-13T15:29:28;6.67;;;1.90;;
72895;SDS011;61036;53.224;6.554;2023-07-13T15:31:53;5.03;;;1.80;;
72895;SDS011;61036;53.224;6.554;2023-07-13T15:34:20;5.30;;;2.07;;
72895;SDS011;61036;53.224;6.554;2023-07-13T15:36:50;5.90;;;2.20;;